sensor_id;sensor_type;location;lat;lon;timestamp;P1;durP1;ratioP1;P2;durP2;ratioP2
27367;SDS011;14839;48.106;11.618;2023-08-31T04:01:31;1.20;;;1.10;;
27367;SDS011;14839;48.106;11.618;2023-08-31T04:03:57;1.93;;;1.70;;
27367;SDS011;14839;48.106;11.618;2023-08-31T04:06:22;1.97;;;1.53;;
27367;SDS011;14839;48.106;11.618;2023-08-31T04:08:48;1.73;;;1.30;;
27367;SDS011;14839;48.106;11.618;2023-08-31T04:11:13;2.03;;;1.30;;
27367;SDS011;14839;48.106;11.618;2023-08-31T04:13:39;5.10;;;1.70;;
27367;SDS011;14839;48.106;11.618;2023-08-31T04:16:04;1.67;;;1.30;;
27367;SDS011;14839;48.106;11.618;2023-08-31T04:18:30;2.57;;;1.73;;
27367;SDS011;14839;48.106;11.618;2023-08-31T04:20:56;1.80;;;1.53;;
27367;SDS011;14839;48.106;11.618;2023-08-31T04:23:24;5.43;;;1.57;;
27367;SDS011;14839;48.106;11.618;2023-08-31T04:25:49;1.73;;;1.57;;
27367;SDS011;14839;48.106;11.618;2023-08-31T04:28:18;1.80;;;1.57;;
27367;SDS011;14839;48.106;11.618;2023-08-31T04:30:44;1.77;;;1.40;;
27367;SDS011;14839;48.106;11.618;2023-08-31T04:33:09;1.43;;;1.33;;
27367;SDS011;14839;48.106;11.618;2023-08-31T04:35:35;4.77;;;1.30;;
27367;SDS011;14839;48.106;11.618;2023-08-31T04:38:01;2.10;;;1.50;;
27367;SDS011;14839;48.106;11.618;2023-08-31T04:40:27;2.33;;;1.50;;
27367;SDS011;14839;48.106;11.618;2023-08-31T04:42:54;2.50;;;1.97;;
27367;SDS011;14839;48.106;11.618;2023-08-31T04:45:19;2.00;;;1.80;;
27367;SDS011;14839;48.106;11.618;2023-08-31T04:47:45;1.30;;;1.10;;
27367;SDS011;14839;48.106;11.618;2023-08-31T04:50:11;2.20;;;1.70;;
27367;SDS011;14839;48.106;11.618;2023-08-31T04:52:36;2.37;;;1.50;;
27367;SDS011;14839;48.106;11.618;2023-08-31T04:55:02;3.80;;;1.60;;
27367;SDS011;14839;48.106;11.618;2023-08-31T04:57:28;3.20;;;1.47;;
27367;SDS011;14839;48.106;11.618;2023-08-31T04:59:54;2.93;;;1.20;;
27367;SDS011;14839;48.106;11.618;2023-08-31T05:02:20;2.97;;;1.47;;
27367;SDS011;14839;48.106;11.618;2023-08-31T05:04:45;1.73;;;1.63;;
27367;SDS011;14839;48.106;11.618;2023-08-31T05:07:11;2.17;;;1.90;;
27367;SDS011;14839;48.106;11.618;2023-08-31T05:09:37;2.17;;;1.70;;
27367;SDS011;14839;48.106;11.618;2023-08-31T05:12:02;3.90;;;2.20;;
27367;SDS011;14839;48.106;11.618;2023-08-31T05:14:28;2.47;;;1.73;;
27367;SDS011;14839;48.106;11.618;2023-08-31T05:16:54;2.70;;;2.00;;
27367;SDS011;14839;48.106;11.618;2023-08-31T05:19:20;2.53;;;2.30;;
27367;SDS011;14839;48.106;11.618;2023-08-31T05:21:46;4.43;;;1.70;;
27367;SDS011;14839;48.106;11.618;2023-08-31T05:24:11;2.93;;;2.20;;
27367;SDS011;14839;48.106;11.618;2023-08-31T05:26:37;3.47;;;2.10;;
27367;SDS011;14839;48.106;11.618;2023-08-31T05:29:03;1.97;;;1.87;;
27367;SDS011;14839;48.106;11.618;2023-08-31T05:31:29;2.27;;;2.07;;
27367;SDS011;14839;48.106;11.618;2023-08-31T05:33:55;2.33;;;2.00;;
27367;SDS011;14839;48.106;11.618;2023-08-31T05:36:20;2.47;;;1.90;;
27367;SDS011;14839;48.106;11.618;2023-08-31T05:38:46;2.80;;;2.17;;
27367;SDS011;14839;48.106;11.618;2023-08-31T05:41:11;5.10;;;2.50;;
27367;SDS011;14839;48.106;11.618;2023-08-31T05:43:37;6.60;;;2.20;;
27367;SDS011;14839;48.106;11.618;2023-08-31T05:46:10;3.93;;;2.40;;
27367;SDS011;14839;48.106;11.618;2023-08-31T05:48:36;5.40;;;2.37;;
27367;SDS011;14839;48.106;11.618;2023-08-31T05:51:02;5.20;;;3.30;;
27367;SDS011;14839;48.106;11.618;2023-08-31T05:53:29;2.80;;;2.20;;
27367;SDS011;14839;48.106;11.618;2023-08-31T05:55:58;4.63;;;2.40;;
27367;SDS011;14839;48.106;11.618;2023-08-31T05:58:33;3.70;;;2.17;;
27367;SDS011;14839;48.106;11.618;2023-08-31T06:01:00;2.13;;;1.93;;
27367;SDS011;14839;48.106;11.618;2023-08-31T06:03:27;4.67;;;2.50;;
27367;SDS011;14839;48.106;11.618;2023-08-31T06:05:54;2.23;;;2.03;;
27367;SDS011;14839;48.106;11.618;2023-08-31T06:08:20;6.57;;;2.03;;
27367;SDS011;14839;48.106;11.618;2023-08-31T06:10:45;2.47;;;1.90;;
27367;SDS011;14839;48.106;11.618;2023-08-31T06:13:11;2.50;;;1.93;;
27367;SDS011;14839;48.106;11.618;2023-08-31T06:15:36;4.53;;;2.10;;
27367;SDS011;14839;48.106;11.618;2023-08-31T06:18:02;2.80;;;2.07;;
27367;SDS011;14839;48.106;11.618;2023-08-31T06:20:28;2.57;;;2.13;;
27367;SDS011;14839;48.106;11.618;2023-08-31T06:22:53;2.20;;;2.00;;
27367;SDS011;14839;48.106;11.618;2023-08-31T06:25:19;3.47;;;2.00;;
27367;SDS011;14839;48.106;11.618;2023-08-31T06:27:46;2.10;;;1.80;;
27367;SDS011;14839;48.106;11.618;2023-08-31T06:30:12;2.60;;;2.00;;
27367;SDS011;14839;48.106;11.618;2023-08-31T06:32:42;2.00;;;1.80;;
27367;SDS011;14839;48.106;11.618;2023-08-31T06:35:09;2.23;;;2.03;;
27367;SDS011;14839;48.106;11.618;2023-08-31T06:37:35;4.07;;;1.63;;
27367;SDS011;14839;48.106;11.618;2023-08-31T06:40:01;3.80;;;1.90;;
27367;SDS011;14839;48.106;11.618;2023-08-31T06:42:27;1.97;;;1.77;;
27367;SDS011;14839;48.106;11.618;2023-08-31T06:44:52;3.13;;;1.63;;
27367;SDS011;14839;48.106;11.618;2023-08-31T06:47:18;2.17;;;1.70;;
27367;SDS011;14839;48.106;11.618;2023-08-31T06:49:43;1.47;;;1.37;;
27367;SDS011;14839;48.106;11.618;2023-08-31T06:52:09;1.83;;;1.63;;
27367;SDS011;14839;48.106;11.618;2023-08-31T06:54:34;3.03;;;1.60;;
27367;SDS011;14839;48.106;11.618;2023-08-31T06:57:00;2.77;;;1.90;;
27367;SDS011;14839;48.106;11.618;2023-08-31T06:59:25;2.93;;;1.73;;
27367;SDS011;14839;48.106;11.618;2023-08-31T07:01:51;2.33;;;1.87;;
27367;SDS011;14839;48.106;11.618;2023-08-31T07:04:16;1.80;;;1.57;;
27367;SDS011;14839;48.106;11.618;2023-08-31T07:06:42;1.67;;;1.30;;
27367;SDS011;14839;48.106;11.618;2023-08-31T07:09:08;1.83;;;1.50;;
27367;SDS011;14839;48.106;11.618;2023-08-31T07:11:33;2.97;;;2.10;;
27367;SDS011;14839;48.106;11.618;2023-08-31T07:13:59;1.70;;;1.40;;
27367;SDS011;14839;48.106;11.618;2023-08-31T07:16:25;3.10;;;1.50;;
27367;SDS011;14839;48.106;11.618;2023-08-31T07:18:51;1.73;;;1.63;;
27367;SDS011;14839;48.106;11.618;2023-08-31T07:21:16;2.57;;;2.00;;
27367;SDS011;14839;48.106;11.618;2023-08-31T07:23:42;1.40;;;1.30;;
27367;SDS011;14839;48.106;11.618;2023-08-31T07:26:08;2.57;;;1.60;;
27367;SDS011;14839;48.106;11.618;2023-08-31T07:28:34;2.43;;;1.50;;
27367;SDS011;14839;48.106;11.618;2023-08-31T07:31:00;1.87;;;1.47;;
27367;SDS011;14839;48.106;11.618;2023-08-31T07:33:28;4.40;;;1.93;;
27367;SDS011;14839;48.106;11.618;2023-08-31T07:35:55;3.10;;;1.63;;
27367;SDS011;14839;48.106;11.618;2023-08-31T07:38:21;1.97;;;1.50;;
27367;SDS011;14839;48.106;11.618;2023-08-31T07:40:46;1.47;;;1.37;;
27367;SDS011;14839;48.106;11.618;2023-08-31T07:43:12;2.07;;;1.67;;
27367;SDS011;14839;48.106;11.618;2023-08-31T07:45:38;2.97;;;1.40;;
27367;SDS011;14839;48.106;11.618;2023-08-31T07:48:04;2.27;;;1.20;;
27367;SDS011;14839;48.106;11.618;2023-08-31T07:50:30;2.83;;;1.67;;
27367;SDS011;14839;48.106;11.618;2023-08-31T07:52:56;1.80;;;1.47;;
27367;SDS011;14839;48.106;11.618;2023-08-31T07:55:22;1.60;;;1.47;;
27367;SDS011;14839;48.106;11.618;2023-08-31T07:57:47;3.33;;;1.50;;
27367;SDS011;14839;48.106;11.618;2023-08-31T08:00:13;1.73;;;1.30;;
27367;SDS011;14839;48.106;11.618;2023-08-31T08:02:39;1.43;;;1.30;;
27367;SDS011;14839;48.106;11.618;2023-08-31T08:05:05;4.00;;;1.87;;
27367;SDS011;14839;48.106;11.618;2023-08-31T08:07:31;1.60;;;1.37;;
27367;SDS011;14839;48.106;11.618;2023-08-31T08:09:57;3.50;;;2.10;;
27367;SDS011;14839;48.106;11.618;2023-08-31T08:12:22;2.03;;;1.47;;
27367;SDS011;14839;48.106;11.618;2023-08-31T08:14:49;1.70;;;1.60;;
27367;SDS011;14839;48.106;11.618;2023-08-31T08:17:15;1.50;;;1.40;;
27367;SDS011;14839;48.106;11.618;2023-08-31T08:19:41;1.97;;;1.60;;
27367;SDS011;14839;48.106;11.618;2023-08-31T08:22:07;1.80;;;1.30;;
27367;SDS011;14839;48.106;11.618;2023-08-31T08:24:32;1.17;;;1.03;;
27367;SDS011;14839;48.106;11.618;2023-08-31T08:26:58;2.20;;;1.50;;
27367;SDS011;14839;48.106;11.618;2023-08-31T08:29:24;7.17;;;1.50;;
27367;SDS011;14839;48.106;11.618;2023-08-31T08:31:50;2.30;;;1.20;;
27367;SDS011;14839;48.106;11.618;2023-08-31T08:34:15;1.87;;;1.30;;
27367;SDS011;14839;48.106;11.618;2023-08-31T08:36:41;0.90;;;0.80;;
27367;SDS011;14839;48.106;11.618;2023-08-31T08:39:06;1.60;;;1.07;;
27367;SDS011;14839;48.106;11.618;2023-08-31T08:41:32;4.77;;;1.10;;
27367;SDS011;14839;48.106;11.618;2023-08-31T08:44:03;1.40;;;1.17;;
27367;SDS011;14839;48.106;11.618;2023-08-31T08:46:30;3.43;;;1.37;;
27367;SDS011;14839;48.106;11.618;2023-08-31T08:48:57;4.43;;;1.53;;
27367;SDS011;14839;48.106;11.618;2023-08-31T08:51:25;2.47;;;1.23;;
27367;SDS011;14839;48.106;11.618;2023-08-31T08:53:52;1.27;;;1.00;;
27367;SDS011;14839;48.106;11.618;2023-08-31T08:56:18;4.63;;;1.27;;
27367;SDS011;14839;48.106;11.618;2023-08-31T08:58:44;3.60;;;1.30;;
27367;SDS011;14839;48.106;11.618;2023-08-31T09:01:10;1.73;;;1.23;;
27367;SDS011;14839;48.106;11.618;2023-08-31T09:03:36;2.30;;;1.40;;
27367;SDS011;14839;48.106;11.618;2023-08-31T09:06:02;1.63;;;1.00;;
27367;SDS011;14839;48.106;11.618;2023-08-31T09:08:29;4.27;;;1.40;;
27367;SDS011;14839;48.106;11.618;2023-08-31T09:10:56;2.27;;;1.00;;
27367;SDS011;14839;48.106;11.618;2023-08-31T09:13:28;3.33;;;0.93;;
27367;SDS011;14839;48.106;11.618;2023-08-31T09:15:54;1.77;;;1.40;;
27367;SDS011;14839;48.106;11.618;2023-08-31T09:20:57;1.37;;;1.10;;
27367;SDS011;14839;48.106;11.618;2023-08-31T09:23:23;2.37;;;1.10;;
27367;SDS011;14839;48.106;11.618;2023-08-31T09:25:50;1.17;;;0.90;;
27367;SDS011;14839;48.106;11.618;2023-08-31T09:28:19;2.53;;;1.20;;
27367;SDS011;14839;48.106;11.618;2023-08-31T09:30:46;3.20;;;1.27;;
27367;SDS011;14839;48.106;11.618;2023-08-31T09:33:13;1.50;;;0.83;;
27367;SDS011;14839;48.106;11.618;2023-08-31T09:35:50;2.33;;;1.20;;
27367;SDS011;14839;48.106;11.618;2023-08-31T09:38:17;1.53;;;1.10;;
27367;SDS011;14839;48.106;11.618;2023-08-31T09:40:43;3.13;;;1.07;;
27367;SDS011;14839;48.106;11.618;2023-08-31T09:43:09;6.13;;;1.50;;
27367;SDS011;14839;48.106;11.618;2023-08-31T09:45:34;2.00;;;1.10;;
27367;SDS011;14839;48.106;11.618;2023-08-31T09:48:02;4.47;;;0.80;;
27367;SDS011;14839;48.106;11.618;2023-08-31T09:50:29;1.77;;;0.90;;
27367;SDS011;14839;48.106;11.618;2023-08-31T09:52:58;1.87;;;1.10;;
27367;SDS011;14839;48.106;11.618;2023-08-31T09:55:27;1.30;;;0.90;;
27367;SDS011;14839;48.106;11.618;2023-08-31T09:57:58;5.80;;;1.20;;
27367;SDS011;14839;48.106;11.618;2023-08-31T10:00:28;1.17;;;1.07;;
27367;SDS011;14839;48.106;11.618;2023-08-31T10:02:56;1.20;;;0.93;;
27367;SDS011;14839;48.106;11.618;2023-08-31T10:05:25;1.47;;;1.20;;
27367;SDS011;14839;48.106;11.618;2023-08-31T10:07:54;1.17;;;1.07;;
27367;SDS011;14839;48.106;11.618;2023-08-31T10:10:21;1.23;;;1.00;;
27367;SDS011;14839;48.106;11.618;2023-08-31T10:12:49;1.87;;;0.97;;
27367;SDS011;14839;48.106;11.618;2023-08-31T10:15:17;0.87;;;0.70;;
27367;SDS011;14839;48.106;11.618;2023-08-31T10:17:44;1.83;;;0.90;;
27367;SDS011;14839;48.106;11.618;2023-08-31T10:20:11;1.77;;;1.20;;
27367;SDS011;14839;48.106;11.618;2023-08-31T10:22:39;1.20;;;0.90;;
27367;SDS011;14839;48.106;11.618;2023-08-31T10:25:05;2.63;;;1.00;;
27367;SDS011;14839;48.106;11.618;2023-08-31T10:27:38;3.40;;;1.40;;
27367;SDS011;14839;48.106;11.618;2023-08-31T10:30:15;2.50;;;1.47;;
27367;SDS011;14839;48.106;11.618;2023-08-31T10:38:31;2.43;;;1.20;;
27367;SDS011;14839;48.106;11.618;2023-08-31T10:43:28;2.00;;;0.93;;
27367;SDS011;14839;48.106;11.618;2023-08-31T10:48:49;0.97;;;0.93;;
27367;SDS011;14839;48.106;11.618;2023-08-31T10:51:26;1.97;;;1.37;;
27367;SDS011;14839;48.106;11.618;2023-08-31T10:54:06;2.30;;;1.23;;
27367;SDS011;14839;48.106;11.618;2023-08-31T10:59:41;1.17;;;1.00;;
27367;SDS011;14839;48.106;11.618;2023-08-31T11:02:07;1.90;;;1.23;;
27367;SDS011;14839;48.106;11.618;2023-08-31T11:04:51;4.63;;;1.20;;
27367;SDS011;14839;48.106;11.618;2023-08-31T11:07:19;1.27;;;1.00;;
27367;SDS011;14839;48.106;11.618;2023-08-31T11:09:48;2.40;;;1.27;;
27367;SDS011;14839;48.106;11.618;2023-08-31T11:12:14;2.40;;;1.37;;
27367;SDS011;14839;48.106;11.618;2023-08-31T11:14:39;3.90;;;1.40;;
27367;SDS011;14839;48.106;11.618;2023-08-31T11:17:06;1.50;;;1.00;;
27367;SDS011;14839;48.106;11.618;2023-08-31T11:19:32;1.73;;;1.10;;
27367;SDS011;14839;48.106;11.618;2023-08-31T11:21:59;2.00;;;1.00;;
27367;SDS011;14839;48.106;11.618;2023-08-31T11:24:27;1.87;;;1.07;;
27367;SDS011;14839;48.106;11.618;2023-08-31T11:26:55;1.13;;;1.03;;
27367;SDS011;14839;48.106;11.618;2023-08-31T11:29:21;1.13;;;1.03;;
27367;SDS011;14839;48.106;11.618;2023-08-31T11:31:47;2.03;;;1.40;;
27367;SDS011;14839;48.106;11.618;2023-08-31T11:34:13;2.00;;;1.27;;
27367;SDS011;14839;48.106;11.618;2023-08-31T11:36:41;2.50;;;1.67;;
27367;SDS011;14839;48.106;11.618;2023-08-31T11:39:08;3.17;;;1.63;;
27367;SDS011;14839;48.106;11.618;2023-08-31T11:41:35;5.00;;;2.10;;
27367;SDS011;14839;48.106;11.618;2023-08-31T11:44:03;5.80;;;2.00;;
27367;SDS011;14839;48.106;11.618;2023-08-31T11:46:30;3.60;;;1.80;;
27367;SDS011;14839;48.106;11.618;2023-08-31T11:48:56;7.67;;;2.73;;
27367;SDS011;14839;48.106;11.618;2023-08-31T11:51:23;5.37;;;2.30;;
27367;SDS011;14839;48.106;11.618;2023-08-31T11:53:50;2.37;;;1.70;;
27367;SDS011;14839;48.106;11.618;2023-08-31T11:56:15;2.07;;;1.70;;
27367;SDS011;14839;48.106;11.618;2023-08-31T11:58:41;2.10;;;1.90;;
27367;SDS011;14839;48.106;11.618;2023-08-31T12:01:07;4.70;;;1.60;;
27367;SDS011;14839;48.106;11.618;2023-08-31T12:03:43;4.37;;;1.93;;
27367;SDS011;14839;48.106;11.618;2023-08-31T12:06:09;5.00;;;1.70;;
27367;SDS011;14839;48.106;11.618;2023-08-31T12:08:36;2.13;;;1.70;;
27367;SDS011;14839;48.106;11.618;2023-08-31T12:11:02;2.53;;;1.43;;
27367;SDS011;14839;48.106;11.618;2023-08-31T12:13:28;4.57;;;1.87;;
27367;SDS011;14839;48.106;11.618;2023-08-31T12:15:57;2.10;;;1.60;;
27367;SDS011;14839;48.106;11.618;2023-08-31T12:18:23;2.40;;;1.63;;
27367;SDS011;14839;48.106;11.618;2023-08-31T12:20:51;4.00;;;1.60;;
27367;SDS011;14839;48.106;11.618;2023-08-31T12:23:20;2.30;;;1.60;;
27367;SDS011;14839;48.106;11.618;2023-08-31T12:25:50;3.30;;;1.60;;
27367;SDS011;14839;48.106;11.618;2023-08-31T12:28:18;2.87;;;1.80;;
27367;SDS011;14839;48.106;11.618;2023-08-31T12:30:51;4.03;;;1.70;;
27367;SDS011;14839;48.106;11.618;2023-08-31T12:33:18;4.10;;;1.87;;
27367;SDS011;14839;48.106;11.618;2023-08-31T12:35:45;2.93;;;1.50;;
27367;SDS011;14839;48.106;11.618;2023-08-31T12:38:11;3.00;;;1.37;;
27367;SDS011;14839;48.106;11.618;2023-08-31T12:40:37;3.73;;;1.83;;
27367;SDS011;14839;48.106;11.618;2023-08-31T12:43:06;3.13;;;1.40;;
27367;SDS011;14839;48.106;11.618;2023-08-31T12:45:31;2.90;;;1.40;;
27367;SDS011;14839;48.106;11.618;2023-08-31T12:47:58;2.73;;;1.40;;
27367;SDS011;14839;48.106;11.618;2023-08-31T12:50:24;3.30;;;1.30;;
27367;SDS011;14839;48.106;11.618;2023-08-31T12:52:50;3.80;;;1.33;;
27367;SDS011;14839;48.106;11.618;2023-08-31T12:55:15;4.87;;;1.20;;
27367;SDS011;14839;48.106;11.618;2023-08-31T12:57:41;4.13;;;1.63;;
27367;SDS011;14839;48.106;11.618;2023-08-31T13:00:08;5.13;;;1.30;;
27367;SDS011;14839;48.106;11.618;2023-08-31T13:02:38;4.73;;;1.37;;
27367;SDS011;14839;48.106;11.618;2023-08-31T13:05:07;1.73;;;1.30;;
27367;SDS011;14839;48.106;11.618;2023-08-31T13:07:37;2.60;;;1.60;;
27367;SDS011;14839;48.106;11.618;2023-08-31T13:10:03;3.87;;;1.30;;
27367;SDS011;14839;48.106;11.618;2023-08-31T13:12:33;2.43;;;1.27;;
27367;SDS011;14839;48.106;11.618;2023-08-31T13:14:59;2.47;;;1.20;;
27367;SDS011;14839;48.106;11.618;2023-08-31T13:17:25;2.50;;;1.27;;
27367;SDS011;14839;48.106;11.618;2023-08-31T13:19:57;1.40;;;1.10;;
27367;SDS011;14839;48.106;11.618;2023-08-31T13:22:23;1.80;;;1.00;;
27367;SDS011;14839;48.106;11.618;2023-08-31T13:24:51;1.70;;;0.80;;
27367;SDS011;14839;48.106;11.618;2023-08-31T13:27:17;2.20;;;1.07;;
27367;SDS011;14839;48.106;11.618;2023-08-31T13:29:43;1.53;;;1.20;;
27367;SDS011;14839;48.106;11.618;2023-08-31T13:32:09;2.60;;;1.30;;
27367;SDS011;14839;48.106;11.618;2023-08-31T13:34:34;2.73;;;1.37;;
27367;SDS011;14839;48.106;11.618;2023-08-31T13:37:02;4.23;;;1.50;;
27367;SDS011;14839;48.106;11.618;2023-08-31T13:39:28;4.47;;;1.30;;
27367;SDS011;14839;48.106;11.618;2023-08-31T13:41:54;4.53;;;1.23;;
27367;SDS011;14839;48.106;11.618;2023-08-31T13:44:20;2.27;;;1.20;;
27367;SDS011;14839;48.106;11.618;2023-08-31T13:46:46;3.50;;;1.10;;
27367;SDS011;14839;48.106;11.618;2023-08-31T13:49:12;5.50;;;1.30;;
27367;SDS011;14839;48.106;11.618;2023-08-31T13:51:38;2.40;;;1.10;;
27367;SDS011;14839;48.106;11.618;2023-08-31T13:54:04;1.60;;;1.30;;
27367;SDS011;14839;48.106;11.618;2023-08-31T13:56:30;1.97;;;1.20;;
27367;SDS011;14839;48.106;11.618;2023-08-31T13:58:55;2.40;;;1.37;;
27367;SDS011;14839;48.106;11.618;2023-08-31T14:01:21;3.27;;;1.53;;
27367;SDS011;14839;48.106;11.618;2023-08-31T14:03:46;2.27;;;1.20;;
27367;SDS011;14839;48.106;11.618;2023-08-31T14:06:13;3.90;;;1.43;;
27367;SDS011;14839;48.106;11.618;2023-08-31T14:08:39;2.07;;;1.20;;
27367;SDS011;14839;48.106;11.618;2023-08-31T14:11:05;2.53;;;1.30;;
27367;SDS011;14839;48.106;11.618;2023-08-31T14:13:31;2.77;;;1.07;;
27367;SDS011;14839;48.106;11.618;2023-08-31T14:15:57;2.07;;;1.30;;
27367;SDS011;14839;48.106;11.618;2023-08-31T14:18:23;4.80;;;1.70;;
27367;SDS011;14839;48.106;11.618;2023-08-31T14:20:50;1.50;;;1.27;;
27367;SDS011;14839;48.106;11.618;2023-08-31T14:23:16;4.20;;;1.40;;
27367;SDS011;14839;48.106;11.618;2023-08-31T14:25:41;4.37;;;1.47;;
27367;SDS011;14839;48.106;11.618;2023-08-31T14:28:07;2.37;;;1.43;;
27367;SDS011;14839;48.106;11.618;2023-08-31T14:30:34;2.00;;;1.20;;
27367;SDS011;14839;48.106;11.618;2023-08-31T14:33:00;2.27;;;1.17;;
27367;SDS011;14839;48.106;11.618;2023-08-31T14:35:27;4.23;;;1.30;;
27367;SDS011;14839;48.106;11.618;2023-08-31T14:37:52;1.50;;;1.13;;
27367;SDS011;14839;48.106;11.618;2023-08-31T14:40:18;2.07;;;1.30;;
27367;SDS011;14839;48.106;11.618;2023-08-31T14:42:44;1.33;;;1.03;;
27367;SDS011;14839;48.106;11.618;2023-08-31T14:45:09;3.03;;;0.93;;
27367;SDS011;14839;48.106;11.618;2023-08-31T14:47:35;2.63;;;1.23;;
27367;SDS011;14839;48.106;11.618;2023-08-31T14:50:01;3.33;;;1.13;;
27367;SDS011;14839;48.106;11.618;2023-08-31T14:52:26;3.43;;;1.50;;
27367;SDS011;14839;48.106;11.618;2023-08-31T14:54:52;2.83;;;1.33;;
27367;SDS011;14839;48.106;11.618;2023-08-31T14:57:17;2.57;;;1.23;;
27367;SDS011;14839;48.106;11.618;2023-08-31T14:59:43;1.30;;;1.00;;
27367;SDS011;14839;48.106;11.618;2023-08-31T15:02:09;2.53;;;1.13;;
27367;SDS011;14839;48.106;11.618;2023-08-31T15:04:34;2.67;;;0.97;;
27367;SDS011;14839;48.106;11.618;2023-08-31T15:07:00;4.30;;;1.37;;
27367;SDS011;14839;48.106;11.618;2023-08-31T15:09:26;2.07;;;1.10;;
27367;SDS011;14839;48.106;11.618;2023-08-31T15:11:51;4.87;;;1.47;;
27367;SDS011;14839;48.106;11.618;2023-08-31T15:14:17;2.67;;;1.30;;
27367;SDS011;14839;48.106;11.618;2023-08-31T15:16:43;6.23;;;1.23;;
27367;SDS011;14839;48.106;11.618;2023-08-31T15:19:08;2.20;;;1.10;;
27367;SDS011;14839;48.106;11.618;2023-08-31T15:21:34;2.53;;;1.20;;
27367;SDS011;14839;48.106;11.618;2023-08-31T15:24:00;2.57;;;1.20;;
27367;SDS011;14839;48.106;11.618;2023-08-31T15:26:26;2.47;;;1.17;;
27367;SDS011;14839;48.106;11.618;2023-08-31T15:28:51;5.47;;;1.37;;
27367;SDS011;14839;48.106;11.618;2023-08-31T15:31:17;3.57;;;1.30;;
27367;SDS011;14839;48.106;11.618;2023-08-31T15:33:43;2.47;;;1.43;;
27367;SDS011;14839;48.106;11.618;2023-08-31T15:36:09;3.83;;;1.07;;
27367;SDS011;14839;48.106;11.618;2023-08-31T15:38:36;2.73;;;1.07;;
27367;SDS011;14839;48.106;11.618;2023-08-31T15:41:02;3.90;;;0.93;;
27367;SDS011;14839;48.106;11.618;2023-08-31T15:43:30;3.57;;;1.40;;
27367;SDS011;14839;48.106;11.618;2023-08-31T15:45:57;1.93;;;1.17;;
27367;SDS011;14839;48.106;11.618;2023-08-31T15:48:24;1.83;;;1.03;;
27367;SDS011;14839;48.106;11.618;2023-08-31T15:50:51;1.20;;;1.10;;
27367;SDS011;14839;48.106;11.618;2023-08-31T15:53:16;2.43;;;1.17;;
27367;SDS011;14839;48.106;11.618;2023-08-31T15:55:45;1.53;;;1.00;;
27367;SDS011;14839;48.106;11.618;2023-08-31T15:58:12;9.30;;;1.70;;
27367;SDS011;14839;48.106;11.618;2023-08-31T16:00:38;5.33;;;1.30;;
27367;SDS011;14839;48.106;11.618;2023-08-31T16:03:03;2.83;;;1.67;;
27367;SDS011;14839;48.106;11.618;2023-08-31T16:05:29;1.80;;;1.20;;
27367;SDS011;14839;48.106;11.618;2023-08-31T16:07:55;3.77;;;1.60;;
27367;SDS011;14839;48.106;11.618;2023-08-31T16:10:20;2.57;;;1.13;;
27367;SDS011;14839;48.106;11.618;2023-08-31T16:12:46;4.10;;;1.27;;
27367;SDS011;14839;48.106;11.618;2023-08-31T16:15:11;2.67;;;1.17;;
27367;SDS011;14839;48.106;11.618;2023-08-31T16:17:37;3.10;;;1.30;;
27367;SDS011;14839;48.106;11.618;2023-08-31T16:20:03;2.33;;;1.00;;
27367;SDS011;14839;48.106;11.618;2023-08-31T16:22:29;6.10;;;1.53;;
27367;SDS011;14839;48.106;11.618;2023-08-31T16:24:56;3.90;;;1.63;;
27367;SDS011;14839;48.106;11.618;2023-08-31T16:27:21;3.37;;;1.07;;
27367;SDS011;14839;48.106;11.618;2023-08-31T16:29:47;3.87;;;1.40;;
27367;SDS011;14839;48.106;11.618;2023-08-31T16:32:13;5.67;;;1.47;;
27367;SDS011;14839;48.106;11.618;2023-08-31T16:34:38;1.97;;;1.17;;
27367;SDS011;14839;48.106;11.618;2023-08-31T16:37:04;1.90;;;1.30;;
27367;SDS011;14839;48.106;11.618;2023-08-31T16:39:30;4.30;;;1.57;;
27367;SDS011;14839;48.106;11.618;2023-08-31T16:41:56;2.83;;;1.30;;
27367;SDS011;14839;48.106;11.618;2023-08-31T16:44:21;3.47;;;1.60;;
27367;SDS011;14839;48.106;11.618;2023-08-31T16:46:47;4.43;;;1.60;;
27367;SDS011;14839;48.106;11.618;2023-08-31T16:49:13;2.30;;;1.40;;
27367;SDS011;14839;48.106;11.618;2023-08-31T16:51:38;2.27;;;1.20;;
27367;SDS011;14839;48.106;11.618;2023-08-31T16:54:05;2.90;;;1.40;;
27367;SDS011;14839;48.106;11.618;2023-08-31T16:56:31;1.30;;;1.13;;
27367;SDS011;14839;48.106;11.618;2023-08-31T16:58:57;2.03;;;1.50;;
27367;SDS011;14839;48.106;11.618;2023-08-31T17:01:24;3.67;;;1.60;;
27367;SDS011;14839;48.106;11.618;2023-08-31T17:03:49;6.10;;;1.20;;
27367;SDS011;14839;48.106;11.618;2023-08-31T17:06:15;3.60;;;1.60;;
27367;SDS011;14839;48.106;11.618;2023-08-31T17:08:40;2.53;;;1.13;;
27367;SDS011;14839;48.106;11.618;2023-08-31T17:11:06;3.97;;;1.43;;
27367;SDS011;14839;48.106;11.618;2023-08-31T17:13:32;1.97;;;1.20;;
27367;SDS011;14839;48.106;11.618;2023-08-31T17:16:05;3.83;;;1.47;;
27367;SDS011;14839;48.106;11.618;2023-08-31T17:18:34;3.47;;;1.40;;
27367;SDS011;14839;48.106;11.618;2023-08-31T17:21:00;2.77;;;1.63;;
27367;SDS011;14839;48.106;11.618;2023-08-31T17:23:26;4.93;;;1.40;;
27367;SDS011;14839;48.106;11.618;2023-08-31T17:25:51;2.60;;;1.50;;
27367;SDS011;14839;48.106;11.618;2023-08-31T17:28:17;5.20;;;1.40;;
27367;SDS011;14839;48.106;11.618;2023-08-31T17:30:43;2.13;;;1.33;;
27367;SDS011;14839;48.106;11.618;2023-08-31T17:33:08;2.67;;;1.60;;
27367;SDS011;14839;48.106;11.618;2023-08-31T17:35:34;2.03;;;1.40;;
27367;SDS011;14839;48.106;11.618;2023-08-31T17:37:59;5.40;;;1.40;;
27367;SDS011;14839;48.106;11.618;2023-08-31T17:40:25;3.10;;;1.33;;
27367;SDS011;14839;48.106;11.618;2023-08-31T17:42:50;3.73;;;1.30;;
27367;SDS011;14839;48.106;11.618;2023-08-31T17:45:16;2.33;;;1.33;;
27367;SDS011;14839;48.106;11.618;2023-08-31T17:47:42;3.33;;;1.30;;
27367;SDS011;14839;48.106;11.618;2023-08-31T17:50:08;1.67;;;1.20;;
27367;SDS011;14839;48.106;11.618;2023-08-31T17:52:35;6.87;;;1.47;;
27367;SDS011;14839;48.106;11.618;2023-08-31T17:55:00;3.57;;;1.80;;
27367;SDS011;14839;48.106;11.618;2023-08-31T17:57:27;1.90;;;1.30;;
27367;SDS011;14839;48.106;11.618;2023-08-31T17:59:54;4.27;;;1.57;;
27367;SDS011;14839;48.106;11.618;2023-08-31T18:02:20;3.33;;;1.60;;
27367;SDS011;14839;48.106;11.618;2023-08-31T18:04:46;4.93;;;1.57;;
27367;SDS011;14839;48.106;11.618;2023-08-31T18:07:11;5.67;;;1.60;;
27367;SDS011;14839;48.106;11.618;2023-08-31T18:09:37;1.87;;;1.53;;
27367;SDS011;14839;48.106;11.618;2023-08-31T18:12:06;2.50;;;1.47;;
27367;SDS011;14839;48.106;11.618;2023-08-31T18:14:33;2.03;;;1.43;;
27367;SDS011;14839;48.106;11.618;2023-08-31T18:17:00;2.47;;;1.20;;
27367;SDS011;14839;48.106;11.618;2023-08-31T18:19:26;3.40;;;1.53;;
27367;SDS011;14839;48.106;11.618;2023-08-31T18:21:55;3.37;;;1.47;;
27367;SDS011;14839;48.106;11.618;2023-08-31T18:24:21;2.80;;;1.30;;
27367;SDS011;14839;48.106;11.618;2023-08-31T18:26:47;2.70;;;1.43;;
27367;SDS011;14839;48.106;11.618;2023-08-31T18:29:12;5.60;;;1.50;;
27367;SDS011;14839;48.106;11.618;2023-08-31T18:31:38;3.87;;;2.10;;
27367;SDS011;14839;48.106;11.618;2023-08-31T18:34:06;3.40;;;1.73;;
27367;SDS011;14839;48.106;11.618;2023-08-31T18:36:32;3.77;;;1.37;;
27367;SDS011;14839;48.106;11.618;2023-08-31T18:38:57;3.27;;;1.50;;
27367;SDS011;14839;48.106;11.618;2023-08-31T18:41:23;4.20;;;1.63;;
27367;SDS011;14839;48.106;11.618;2023-08-31T18:43:49;2.70;;;1.53;;
27367;SDS011;14839;48.106;11.618;2023-08-31T18:46:14;9.20;;;1.50;;